sensor_id;sensor_type;location;lat;lon;timestamp;pressure;altitude;pressure_sealevel;temperature;humidity
64967;BME280;51710;38.732;-121.358;2024-01-25T00:02:03;101330.91;;;13.95;97.41
64967;BME280;51710;38.732;-121.358;2024-01-25T00:04:29;101328.22;;;13.95;97.28
64967;BME280;51710;38.732;-121.358;2024-01-25T00:06:55;101331.94;;;13.94;97.50
64967;BME280;51710;38.732;-121.358;2024-01-25T00:09:22;101341.78;;;13.93;97.50
64967;BME280;51710;38.732;-121.358;2024-01-25T00:11:48;101342.63;;;13.94;97.31
64967;BME280;51710;38.732;-121.358;2024-01-25T00:14:14;101336.44;;;13.93;97.46
64967;BME280;51710;38.732;-121.358;2024-01-25T00:16:43;101340.97;;;13.93;97.33
64967;BME280;51710;38.732;-121.358;2024-01-25T00:19:09;101328.72;;;13.90;97.41
64967;BME280;51710;38.732;-121.358;2024-01-25T00:21:41;101318.53;;;13.94;97.73
64967;BME280;51710;38.732;-121.358;2024-01-25T00:24:08;101321.88;;;13.96;97.87
64967;BME280;51710;38.732;-121.358;2024-01-25T00:26:35;101316.38;;;13.97;97.99
64967;BME280;51710;38.732;-121.358;2024-01-25T00:29:01;101311.84;;;13.98;97.91
64967;BME280;51710;38.732;-121.358;2024-01-25T00:31:27;101311.19;;;13.96;97.72
64967;BME280;51710;38.732;-121.358;2024-01-25T00:33:54;101321.22;;;13.94;97.63
64967;BME280;51710;38.732;-121.358;2024-01-25T00:36:21;101311.50;;;13.93;97.91
64967;BME280;51710;38.732;-121.358;2024-01-25T00:38:47;101312.84;;;13.89;98.45
64967;BME280;51710;38.732;-121.358;2024-01-25T00:41:17;101319.50;;;13.85;98.24
64967;BME280;51710;38.732;-121.358;2024-01-25T00:43:47;101316.84;;;13.85;98.73
64967;BME280;51710;38.732;-121.358;2024-01-25T00:46:14;101324.06;;;13.84;98.50
64967;BME280;51710;38.732;-121.358;2024-01-25T00:48:40;101327.88;;;13.82;98.61
64967;BME280;51710;38.732;-121.358;2024-01-25T00:51:14;101321.00;;;13.79;98.97
64967;BME280;51710;38.732;-121.358;2024-01-25T00:53:40;101333.22;;;13.82;99.09
64967;BME280;51710;38.732;-121.358;2024-01-25T00:56:07;101324.34;;;13.81;99.42
64967;BME280;51710;38.732;-121.358;2024-01-25T00:58:34;101339.75;;;13.79;99.36
64967;BME280;51710;38.732;-121.358;2024-01-25T01:01:01;101332.72;;;13.78;99.69
64967;BME280;51710;38.732;-121.358;2024-01-25T01:03:27;101331.06;;;13.77;99.76
64967;BME280;51710;38.732;-121.358;2024-01-25T01:05:54;101331.88;;;13.78;99.71
64967;BME280;51710;38.732;-121.358;2024-01-25T01:08:20;101339.22;;;13.76;99.69
64967;BME280;51710;38.732;-121.358;2024-01-25T01:10:47;101334.19;;;13.73;99.82
64967;BME280;51710;38.732;-121.358;2024-01-25T01:13:13;101336.88;;;13.73;100.00
64967;BME280;51710;38.732;-121.358;2024-01-25T01:15:39;101344.91;;;13.73;100.00
64967;BME280;51710;38.732;-121.358;2024-01-25T01:18:05;101338.88;;;13.71;100.00
64967;BME280;51710;38.732;-121.358;2024-01-25T01:20:32;101335.84;;;13.66;99.78
64967;BME280;51710;38.732;-121.358;2024-01-25T01:22:58;101345.06;;;13.63;99.89
64967;BME280;51710;38.732;-121.358;2024-01-25T01:25:24;101337.50;;;13.58;100.00
64967;BME280;51710;38.732;-121.358;2024-01-25T01:27:51;101348.19;;;13.58;100.00
64967;BME280;51710;38.732;-121.358;2024-01-25T01:30:17;101342.84;;;13.58;100.00
64967;BME280;51710;38.732;-121.358;2024-01-25T01:32:43;101337.50;;;13.58;100.00
64967;BME280;51710;38.732;-121.358;2024-01-25T01:35:09;101340.50;;;13.55;100.00
64967;BME280;51710;38.732;-121.358;2024-01-25T01:37:36;101343.19;;;13.55;100.00
64967;BME280;51710;38.732;-121.358;2024-01-25T01:40:02;101352.06;;;13.56;100.00
64967;BME280;51710;38.732;-121.358;2024-01-25T01:42:30;101356.41;;;13.57;100.00
64967;BME280;51710;38.732;-121.358;2024-01-25T01:44:57;101360.91;;;13.56;100.00
64967;BME280;51710;38.732;-121.358;2024-01-25T01:47:23;101350.34;;;13.55;100.00
64967;BME280;51710;38.732;-121.358;2024-01-25T01:49:49;101341.50;;;13.54;100.00
64967;BME280;51710;38.732;-121.358;2024-01-25T01:52:16;101339.81;;;13.53;100.00
64967;BME280;51710;38.732;-121.358;2024-01-25T01:54:44;101332.81;;;13.52;100.00
64967;BME280;51710;38.732;-121.358;2024-01-25T01:57:11;101342.81;;;13.50;100.00
64967;BME280;51710;38.732;-121.358;2024-01-25T01:59:38;101335.66;;;13.51;100.00
64967;BME280;51710;38.732;-121.358;2024-01-25T02:02:04;101339.81;;;13.53;100.00
64967;BME280;51710;38.732;-121.358;2024-01-25T02:04:31;101326.78;;;13.50;100.00
64967;BME280;51710;38.732;-121.358;2024-01-25T02:06:57;101343.81;;;13.49;100.00
64967;BME280;51710;38.732;-121.358;2024-01-25T02:09:24;101351.03;;;13.49;100.00
64967;BME280;51710;38.732;-121.358;2024-01-25T02:11:59;101352.69;;;13.50;100.00
64967;BME280;51710;38.732;-121.358;2024-01-25T02:14:26;101349.16;;;13.49;100.00
64967;BME280;51710;38.732;-121.358;2024-01-25T02:16:53;101359.88;;;13.49;100.00
64967;BME280;51710;38.732;-121.358;2024-01-25T02:19:19;101362.88;;;13.46;100.00
64967;BME280;51710;38.732;-121.358;2024-01-25T02:21:45;101362.19;;;13.44;100.00
64967;BME280;51710;38.732;-121.358;2024-01-25T02:24:12;101367.88;;;13.41;100.00
64967;BME280;51710;38.732;-121.358;2024-01-25T02:26:38;101367.88;;;13.41;100.00
64967;BME280;51710;38.732;-121.358;2024-01-25T02:29:04;101363.38;;;13.42;100.00
64967;BME280;51710;38.732;-121.358;2024-01-25T02:31:33;101367.69;;;13.43;100.00
64967;BME280;51710;38.732;-121.358;2024-01-25T02:33:59;101380.22;;;13.42;100.00
64967;BME280;51710;38.732;-121.358;2024-01-25T02:36:25;101375.88;;;13.41;100.00
64967;BME280;51710;38.732;-121.358;2024-01-25T02:38:52;101382.53;;;13.37;100.00
64967;BME280;51710;38.732;-121.358;2024-01-25T02:41:18;101391.59;;;13.36;100.00
64967;BME280;51710;38.732;-121.358;2024-01-25T02:43:44;101384.53;;;13.35;100.00
64967;BME280;51710;38.732;-121.358;2024-01-25T02:46:10;101380.88;;;13.36;100.00
64967;BME280;51710;38.732;-121.358;2024-01-25T02:48:37;101391.25;;;13.39;100.00
64967;BME280;51710;38.732;-121.358;2024-01-25T02:51:03;101380.22;;;13.42;100.00
64967;BME280;51710;38.732;-121.358;2024-01-25T02:53:29;101383.59;;;13.44;100.00
64967;BME280;51710;38.732;-121.358;2024-01-25T02:55:56;101389.28;;;13.41;100.00
64967;BME280;51710;38.732;-121.358;2024-01-25T02:58:22;101379.72;;;13.39;100.00
64967;BME280;51710;38.732;-121.358;2024-01-25T03:00:48;101372.38;;;13.41;100.00
64967;BME280;51710;38.732;-121.358;2024-01-25T03:03:15;101380.56;;;13.39;100.00
64967;BME280;51710;38.732;-121.358;2024-01-25T03:05:42;101378.88;;;13.38;100.00
64967;BME280;51710;38.732;-121.358;2024-01-25T03:08:08;101378.03;;;13.38;100.00
64967;BME280;51710;38.732;-121.358;2024-01-25T03:10:34;101387.22;;;13.35;100.00
64967;BME280;51710;38.732;-121.358;2024-01-25T03:13:00;101397.91;;;13.35;100.00
64967;BME280;51710;38.732;-121.358;2024-01-25T03:15:27;101393.25;;;13.37;100.00
64967;BME280;51710;38.732;-121.358;2024-01-25T03:17:53;101393.25;;;13.37;100.00
64967;BME280;51710;38.732;-121.358;2024-01-25T03:20:19;101392.28;;;13.38;100.00
64967;BME280;51710;38.732;-121.358;2024-01-25T03:22:45;101389.59;;;13.38;100.00
64967;BME280;51710;38.732;-121.358;2024-01-25T03:25:12;101384.94;;;13.40;100.00
64967;BME280;51710;38.732;-121.358;2024-01-25T03:27:38;101391.94;;;13.41;100.00
64967;BME280;51710;38.732;-121.358;2024-01-25T03:30:05;101402.31;;;13.44;100.00
64967;BME280;51710;38.732;-121.358;2024-01-25T03:32:33;101405.00;;;13.44;100.00
64967;BME280;51710;38.732;-121.358;2024-01-25T03:34:59;101402.16;;;13.46;100.00
64967;BME280;51710;38.732;-121.358;2024-01-25T03:37:26;101403.34;;;13.43;100.00
64967;BME280;51710;38.732;-121.358;2024-01-25T03:39:52;101409.53;;;13.44;100.00
64967;BME280;51710;38.732;-121.358;2024-01-25T03:42:18;101410.66;;;13.41;100.00
64967;BME280;51710;38.732;-121.358;2024-01-25T03:44:44;101411.69;;;13.40;100.00
64967;BME280;51710;38.732;-121.358;2024-01-25T03:47:11;101411.69;;;13.40;100.00
64967;BME280;51710;38.732;-121.358;2024-01-25T03:49:38;101417.03;;;13.40;100.00
64967;BME280;51710;38.732;-121.358;2024-01-25T03:52:05;101423.19;;;13.41;100.00
64967;BME280;51710;38.732;-121.358;2024-01-25T03:54:31;101423.19;;;13.41;100.00
64967;BME280;51710;38.732;-121.358;2024-01-25T03:56:57;101415.00;;;13.42;100.00
64967;BME280;51710;38.732;-121.358;2024-01-25T03:59:24;101420.06;;;13.45;100.00
64967;BME280;51710;38.732;-121.358;2024-01-25T04:01:50;101408.34;;;13.46;100.00
64967;BME280;51710;38.732;-121.358;2024-01-25T04:04:16;101398.50;;;13.47;100.00
64967;BME280;51710;38.732;-121.358;2024-01-25T04:06:43;101394.28;;;13.44;100.00
64967;BME280;51710;38.732;-121.358;2024-01-25T04:09:11;101394.28;;;13.44;100.00
64967;BME280;51710;38.732;-121.358;2024-01-25T04:11:38;101396.28;;;13.42;100.00
64967;BME280;51710;38.732;-121.358;2024-01-25T04:14:04;101393.59;;;13.42;100.00
64967;BME280;51710;38.732;-121.358;2024-01-25T04:16:31;101388.25;;;13.42;100.00
64967;BME280;51710;38.732;-121.358;2024-01-25T04:18:58;101384.75;;;13.42;100.00
64967;BME280;51710;38.732;-121.358;2024-01-25T04:21:24;101402.66;;;13.41;100.00
64967;BME280;51710;38.732;-121.358;2024-01-25T04:23:50;101416.03;;;13.41;100.00
64967;BME280;51710;38.732;-121.358;2024-01-25T04:26:17;101421.38;;;13.41;100.00
64967;BME280;51710;38.732;-121.358;2024-01-25T04:28:43;101410.66;;;13.41;100.00
64967;BME280;51710;38.732;-121.358;2024-01-25T04:31:09;101420.53;;;13.41;100.00
64967;BME280;51710;38.732;-121.358;2024-01-25T04:33:37;101426.19;;;13.38;100.00
64967;BME280;51710;38.732;-121.358;2024-01-25T04:36:04;101431.72;;;13.36;100.00
64967;BME280;51710;38.732;-121.358;2024-01-25T04:38:31;101435.25;;;13.37;100.00
64967;BME280;51710;38.732;-121.358;2024-01-25T04:40:57;101437.91;;;13.37;100.00
64967;BME280;51710;38.732;-121.358;2024-01-25T04:43:24;101432.41;;;13.38;100.00
64967;BME280;51710;38.732;-121.358;2024-01-25T04:45:50;101426.19;;;13.38;100.00
64967;BME280;51710;38.732;-121.358;2024-01-25T04:48:16;101424.22;;;13.40;100.00
64967;BME280;51710;38.732;-121.358;2024-01-25T04:50:43;101439.25;;;13.41;100.00
64967;BME280;51710;38.732;-121.358;2024-01-25T04:53:09;101439.78;;;13.44;100.00
64967;BME280;51710;38.732;-121.358;2024-01-25T04:55:35;101442.28;;;13.46;100.00
64967;BME280;51710;38.732;-121.358;2024-01-25T04:58:02;101441.75;;;13.42;100.00
64967;BME280;51710;38.732;-121.358;2024-01-25T05:00:28;101441.75;;;13.42;100.00
64967;BME280;51710;38.732;-121.358;2024-01-25T05:02:54;101438.28;;;13.42;100.00
64967;BME280;51710;38.732;-121.358;2024-01-25T05:05:20;101435.75;;;13.40;100.00
64967;BME280;51710;38.732;-121.358;2024-01-25T05:07:47;101434.38;;;13.36;100.00
64967;BME280;51710;38.732;-121.358;2024-01-25T05:10:13;101438.03;;;13.35;100.00
64967;BME280;51710;38.732;-121.358;2024-01-25T05:12:39;101439.06;;;13.34;100.00
64967;BME280;51710;38.732;-121.358;2024-01-25T05:15:06;101421.47;;;13.32;100.00
64967;BME280;51710;38.732;-121.358;2024-01-25T05:17:33;101421.63;;;13.30;100.00
64967;BME280;51710;38.732;-121.358;2024-01-25T05:19:59;101419.13;;;13.29;100.00
64967;BME280;51710;38.732;-121.358;2024-01-25T05:22:26;101417.28;;;13.29;100.00
64967;BME280;51710;38.732;-121.358;2024-01-25T05:24:52;101420.97;;;13.28;100.00
64967;BME280;51710;38.732;-121.358;2024-01-25T05:27:18;101420.97;;;13.28;100.00
64967;BME280;51710;38.732;-121.358;2024-01-25T05:29:44;101412.94;;;13.28;100.00
64967;BME280;51710;38.732;-121.358;2024-01-25T05:32:11;101411.94;;;13.29;100.00
64967;BME280;51710;38.732;-121.358;2024-01-25T05:34:37;101424.63;;;13.27;100.00
64967;BME280;51710;38.732;-121.358;2024-01-25T05:37:03;101420.28;;;13.26;100.00
64967;BME280;51710;38.732;-121.358;2024-01-25T05:39:30;101422.97;;;13.26;100.00
64967;BME280;51710;38.732;-121.358;2024-01-25T05:41:56;101429.13;;;13.27;100.00
64967;BME280;51710;38.732;-121.358;2024-01-25T05:44:22;101422.97;;;13.26;100.00
64967;BME280;51710;38.732;-121.358;2024-01-25T05:46:48;101432.97;;;13.24;100.00
64967;BME280;51710;38.732;-121.358;2024-01-25T05:49:14;101428.59;;;13.23;100.00
64967;BME280;51710;38.732;-121.358;2024-01-25T05:51:41;101429.44;;;13.24;100.00
64967;BME280;51710;38.732;-121.358;2024-01-25T05:54:07;101430.31;;;13.24;100.00
64967;BME280;51710;38.732;-121.358;2024-01-25T05:56:33;101435.66;;;13.24;100.00
64967;BME280;51710;38.732;-121.358;2024-01-25T05:59:00;101436.63;;;13.23;100.00
64967;BME280;51710;38.732;-121.358;2024-01-25T06:01:26;101446.34;;;13.24;100.00
64967;BME280;51710;38.732;-121.358;2024-01-25T06:03:52;101443.84;;;13.23;100.00
64967;BME280;51710;38.732;-121.358;2024-01-25T06:06:18;101448.88;;;13.26;100.00
64967;BME280;51710;38.732;-121.358;2024-01-25T06:08:45;101447.03;;;13.26;100.00
64967;BME280;51710;38.732;-121.358;2024-01-25T06:11:11;101453.06;;;13.28;100.00
64967;BME280;51710;38.732;-121.358;2024-01-25T06:13:37;101453.06;;;13.28;100.00
64967;BME280;51710;38.732;-121.358;2024-01-25T06:16:04;101451.91;;;13.31;100.00
64967;BME280;51710;38.732;-121.358;2024-01-25T06:18:30;101450.91;;;13.32;100.00
64967;BME280;51710;38.732;-121.358;2024-01-25T06:20:56;101448.38;;;13.30;100.00
64967;BME280;51710;38.732;-121.358;2024-01-25T06:23:22;101454.75;;;13.29;100.00
64967;BME280;51710;38.732;-121.358;2024-01-25T06:25:49;101458.44;;;13.28;100.00
64967;BME280;51710;38.732;-121.358;2024-01-25T06:28:15;101462.59;;;13.31;100.00
64967;BME280;51710;38.732;-121.358;2024-01-25T06:30:41;101470.16;;;13.35;100.00
64967;BME280;51710;38.732;-121.358;2024-01-25T06:33:08;101466.50;;;13.36;100.00
64967;BME280;51710;38.732;-121.358;2024-01-25T06:35:34;101469.84;;;13.38;100.00
64967;BME280;51710;38.732;-121.358;2024-01-25T06:38:00;101478.84;;;13.37;100.00
64967;BME280;51710;38.732;-121.358;2024-01-25T06:40:27;101472.69;;;13.37;100.00
64967;BME280;51710;38.732;-121.358;2024-01-25T06:42:53;101477.19;;;13.36;100.00
64967;BME280;51710;38.732;-121.358;2024-01-25T06:45:19;101496.91;;;13.35;100.00
64967;BME280;51710;38.732;-121.358;2024-01-25T06:47:45;101498.59;;;13.36;100.00
64967;BME280;51710;38.732;-121.358;2024-01-25T06:50:12;101495.75;;;13.38;100.00
64967;BME280;51710;38.732;-121.358;2024-01-25T06:52:39;101510.16;;;13.37;100.00
64967;BME280;51710;38.732;-121.358;2024-01-25T06:55:05;101508.28;;;13.37;100.00
64967;BME280;51710;38.732;-121.358;2024-01-25T06:57:31;101510.97;;;13.37;100.00
64967;BME280;51710;38.732;-121.358;2024-01-25T06:59:58;101508.13;;;13.39;100.00
64967;BME280;51710;38.732;-121.358;2024-01-25T07:02:24;101513.34;;;13.40;100.00
64967;BME280;51710;38.732;-121.358;2024-01-25T07:04:51;101509.66;;;13.41;100.00
64967;BME280;51710;38.732;-121.358;2024-01-25T07:07:19;101514.84;;;13.43;100.00
64967;BME280;51710;38.732;-121.358;2024-01-25T07:09:46;101519.06;;;13.45;100.00
64967;BME280;51710;38.732;-121.358;2024-01-25T07:12:12;101505.69;;;13.45;100.00
64967;BME280;51710;38.732;-121.358;2024-01-25T07:14:38;101502.00;;;13.46;100.00
64967;BME280;51710;38.732;-121.358;2024-01-25T07:17:04;101501.03;;;13.47;100.00
64967;BME280;51710;38.732;-121.358;2024-01-25T07:19:31;101507.34;;;13.46;100.00
64967;BME280;51710;38.732;-121.358;2024-01-25T07:21:57;101510.72;;;13.48;100.00
64967;BME280;51710;38.732;-121.358;2024-01-25T07:24:23;101512.25;;;13.51;100.00
64967;BME280;51710;38.732;-121.358;2024-01-25T07:26:52;101518.44;;;13.51;100.00
64967;BME280;51710;38.732;-121.358;2024-01-25T07:29:18;101510.25;;;13.53;100.00
64967;BME280;51710;38.732;-121.358;2024-01-25T07:31:44;101509.44;;;13.52;100.00
64967;BME280;51710;38.732;-121.358;2024-01-25T07:34:10;101502.69;;;13.48;100.00
64967;BME280;51710;38.732;-121.358;2024-01-25T07:36:37;101498.66;;;13.44;100.00
64967;BME280;51710;38.732;-121.358;2024-01-25T07:39:03;101509.50;;;13.43;100.00
64967;BME280;51710;38.732;-121.358;2024-01-25T07:41:29;101495.97;;;13.44;100.00
64967;BME280;51710;38.732;-121.358;2024-01-25T07:43:55;101494.31;;;13.43;100.00
64967;BME280;51710;38.732;-121.358;2024-01-25T07:46:22;101491.63;;;13.43;100.00
64967;BME280;51710;38.732;-121.358;2024-01-25T07:48:50;101483.59;;;13.43;100.00
64967;BME280;51710;38.732;-121.358;2024-01-25T07:51:16;101479.91;;;13.44;100.00
64967;BME280;51710;38.732;-121.358;2024-01-25T07:53:42;101478.94;;;13.45;100.00
64967;BME280;51710;38.732;-121.358;2024-01-25T07:56:08;101484.97;;;13.47;100.00
64967;BME280;51710;38.732;-121.358;2024-01-25T07:58:37;101482.13;;;13.49;100.00
64967;BME280;51710;38.732;-121.358;2024-01-25T08:01:06;101479.31;;;13.50;100.00
64967;BME280;51710;38.732;-121.358;2024-01-25T08:03:33;101485.50;;;13.51;100.00
64967;BME280;51710;38.732;-121.358;2024-01-25T08:06:01;101487.31;;;13.50;100.00
64967;BME280;51710;38.732;-121.358;2024-01-25T08:08:28;101484.97;;;13.47;100.00
64967;BME280;51710;38.732;-121.358;2024-01-25T08:10:54;101491.13;;;13.48;100.00
64967;BME280;51710;38.732;-121.358;2024-01-25T08:13:21;101486.63;;;13.48;100.00
64967;BME280;51710;38.732;-121.358;2024-01-25T08:15:48;101484.66;;;13.50;100.00
64967;BME280;51710;38.732;-121.358;2024-01-25T08:18:14;101483.97;;;13.48;100.00
64967;BME280;51710;38.732;-121.358;2024-01-25T08:20:41;101483.28;;;13.46;100.00
64967;BME280;51710;38.732;-121.358;2024-01-25T08:23:07;101477.06;;;13.46;100.00
64967;BME280;51710;38.732;-121.358;2024-01-25T08:25:35;101469.91;;;13.46;100.00
64967;BME280;51710;38.732;-121.358;2024-01-25T08:28:01;101470.59;;;13.48;100.00
64967;BME280;51710;38.732;-121.358;2024-01-25T08:30:27;101474.28;;;13.47;100.00
64967;BME280;51710;38.732;-121.358;2024-01-25T08:32:54;101478.09;;;13.45;100.00
64967;BME280;51710;38.732;-121.358;2024-01-25T08:35:21;101484.56;;;13.42;100.00
64967;BME280;51710;38.732;-121.358;2024-01-25T08:37:48;101475.72;;;13.42;100.00
64967;BME280;51710;38.732;-121.358;2024-01-25T08:40:15;101476.56;;;13.42;100.00
64967;BME280;51710;38.732;-121.358;2024-01-25T08:42:41;101471.19;;;13.42;100.00
64967;BME280;51710;38.732;-121.358;2024-01-25T08:45:08;101472.22;;;13.41;100.00
64967;BME280;51710;38.732;-121.358;2024-01-25T08:47:36;101474.19;;;13.39;100.00
64967;BME280;51710;38.732;-121.358;2024-01-25T08:50:02;101466.34;;;13.38;100.00
64967;BME280;51710;38.732;-121.358;2024-01-25T08:52:29;101479.72;;;13.38;100.00
64967;BME280;51710;38.732;-121.358;2024-01-25T08:54:55;101479.38;;;13.41;100.00
64967;BME280;51710;38.732;-121.358;2024-01-25T08:57:22;101473.75;;;13.44;100.00
64967;BME280;51710;38.732;-121.358;2024-01-25T08:59:48;101465.19;;;13.40;100.00
64967;BME280;51710;38.732;-121.358;2024-01-25T09:02:14;101463.66;;;13.38;100.00
64967;BME280;51710;38.732;-121.358;2024-01-25T09:04:41;101462.97;;;13.36;100.00
64967;BME280;51710;38.732;-121.358;2024-01-25T09:07:09;101457.47;;;13.37;100.00
64967;BME280;51710;38.732;-121.358;2024-01-25T09:09:35;101459.00;;;13.40;100.00
64967;BME280;51710;38.732;-121.358;2024-01-25T09:12:01;101462.50;;;13.40;100.00
64967;BME280;51710;38.732;-121.358;2024-01-25T09:14:27;101465.66;;;13.36;100.00
64967;BME280;51710;38.732;-121.358;2024-01-25T09:16:54;101465.28;;;13.31;100.00
64967;BME280;51710;38.732;-121.358;2024-01-25T09:19:20;101468.44;;;13.26;100.00
64967;BME280;51710;38.732;-121.358;2024-01-25T09:21:47;101457.50;;;13.20;100.00
64967;BME280;51710;38.732;-121.358;2024-01-25T09:24:13;101463.31;;;13.15;100.00
64967;BME280;51710;38.732;-121.358;2024-01-25T09:26:39;101470.28;;;13.08;100.00
64967;BME280;51710;38.732;-121.358;2024-01-25T09:29:05;101473.28;;;13.05;100.00
64967;BME280;51710;38.732;-121.358;2024-01-25T09:31:32;101481.47;;;13.04;100.00
64967;BME280;51710;38.732;-121.358;2024-01-25T09:33:58;101475.25;;;13.03;100.00
64967;BME280;51710;38.732;-121.358;2024-01-25T09:36:24;101487.06;;;13.01;100.00
64967;BME280;51710;38.732;-121.358;2024-01-25T09:38:50;101484.00;;;12.96;100.00
64967;BME280;51710;38.732;-121.358;2024-01-25T09:41:17;101484.50;;;12.91;100.00
64967;BME280;51710;38.732;-121.358;2024-01-25T09:43:43;101495.50;;;12.88;100.00
64967;BME280;51710;38.732;-121.358;2024-01-25T09:46:13;101485.94;;;12.86;100.00
64967;BME280;51710;38.732;-121.358;2024-01-25T09:48:42;101498.75;;;12.82;100.00
64967;BME280;51710;38.732;-121.358;2024-01-25T09:51:12;101507.78;;;12.81;100.00
64967;BME280;51710;38.732;-121.358;2024-01-25T09:53:40;101508.06;;;12.78;100.00
64967;BME280;51710;38.732;-121.358;2024-01-25T09:56:10;101517.94;;;12.78;100.00
64967;BME280;51710;38.732;-121.358;2024-01-25T09:58:39;101517.41;;;12.74;100.00
64967;BME280;51710;38.732;-121.358;2024-01-25T10:01:09;101515.88;;;12.72;100.00
64967;BME280;51710;38.732;-121.358;2024-01-25T10:03:41;101525.69;;;12.71;100.00
64967;BME280;51710;38.732;-121.358;2024-01-25T10:06:08;101530.88;;;12.73;100.00
64967;BME280;51710;38.732;-121.358;2024-01-25T10:08:34;101539.59;;;12.75;100.00
64967;BME280;51710;38.732;-121.358;2024-01-25T10:11:01;101543.13;;;12.75;100.00
64967;BME280;51710;38.732;-121.358;2024-01-25T10:13:28;101545.50;;;12.78;100.00
64967;BME280;51710;38.732;-121.358;2024-01-25T10:15:55;101539.16;;;12.79;100.00
64967;BME280;51710;38.732;-121.358;2024-01-25T10:18:27;101543.50;;;12.80;100.00
64967;BME280;51710;38.732;-121.358;2024-01-25T10:20:54;101555.22;;;12.79;100.00
64967;BME280;51710;38.732;-121.358;2024-01-25T10:23:20;101537.78;;;12.75;100.00
64967;BME280;51710;38.732;-121.358;2024-01-25T10:25:48;101545.09;;;12.73;100.00
64967;BME280;51710;38.732;-121.358;2024-01-25T10:28:16;101534.56;;;12.72;100.00
64967;BME280;51710;38.732;-121.358;2024-01-25T10:30:42;101536.72;;;12.68;100.00
64967;BME280;51710;38.732;-121.358;2024-01-25T10:33:09;101546.69;;;12.66;100.00
64967;BME280;51710;38.732;-121.358;2024-01-25T10:35:36;101546.16;;;12.63;100.00
64967;BME280;51710;38.732;-121.358;2024-01-25T10:38:04;101552.66;;;12.60;100.00
64967;BME280;51710;38.732;-121.358;2024-01-25T10:40:30;101557.47;;;12.57;100.00
64967;BME280;51710;38.732;-121.358;2024-01-25T10:42:56;101558.44;;;12.56;100.00
64967;BME280;51710;38.732;-121.358;2024-01-25T10:45:23;101574.63;;;12.54;100.00
64967;BME280;51710;38.732;-121.358;2024-01-25T10:47:49;101575.63;;;12.53;100.00
64967;BME280;51710;38.732;-121.358;2024-01-25T10:50:16;101575.63;;;12.53;100.00
64967;BME280;51710;38.732;-121.358;2024-01-25T10:52:43;101574.94;;;12.51;100.00
64967;BME280;51710;38.732;-121.358;2024-01-25T10:55:11;101574.06;;;12.51;100.00
64967;BME280;51710;38.732;-121.358;2024-01-25T10:57:45;101576.91;;;12.49;100.00
64967;BME280;51710;38.732;-121.358;2024-01-25T11:00:13;101582.25;;;12.49;100.00
64967;BME280;51710;38.732;-121.358;2024-01-25T11:02:41;101585.91;;;12.48;100.00
64967;BME280;51710;38.732;-121.358;2024-01-25T11:05:17;101587.88;;;12.46;100.00
64967;BME280;51710;38.732;-121.358;2024-01-25T11:07:46;101585.38;;;12.44;100.00
64967;BME280;51710;38.732;-121.358;2024-01-25T11:10:18;101578.47;;;12.42;100.00
64967;BME280;51710;38.732;-121.358;2024-01-25T11:12:51;101580.06;;;12.35;100.00
64967;BME280;51710;38.732;-121.358;2024-01-25T11:15:23;101582.34;;;12.30;100.00
64967;BME280;51710;38.732;-121.358;2024-01-25T11:17:56;101576.28;;;12.28;100.00
64967;BME280;51710;38.732;-121.358;2024-01-25T11:20:24;101588.78;;;12.27;100.00
64967;BME280;51710;38.732;-121.358;2024-01-25T11:25:31;101596.25;;;12.24;100.00
64967;BME280;51710;38.732;-121.358;2024-01-25T11:27:59;101598.94;;;12.24;100.00
64967;BME280;51710;38.732;-121.358;2024-01-25T11:30:28;101597.25;;;12.23;100.00
64967;BME280;51710;38.732;-121.358;2024-01-25T11:32:54;101594.59;;;12.23;100.00
64967;BME280;51710;38.732;-121.358;2024-01-25T11:35:21;101597.56;;;12.20;100.00
64967;BME280;51710;38.732;-121.358;2024-01-25T11:37:49;101596.72;;;12.19;100.00
64967;BME280;51710;38.732;-121.358;2024-01-25T11:40:19;101596.72;;;12.19;100.00
64967;BME280;51710;38.732;-121.358;2024-01-25T11:42:48;101593.88;;;12.21;100.00
64967;BME280;51710;38.732;-121.358;2024-01-25T11:45:14;101584.91;;;12.22;100.00
64967;BME280;51710;38.732;-121.358;2024-01-25T11:47:42;101589.41;;;12.21;100.00
64967;BME280;51710;38.732;-121.358;2024-01-25T11:50:11;101577.16;;;12.19;100.00
64967;BME280;51710;38.732;-121.358;2024-01-25T11:52:38;101583.66;;;12.16;100.00
64967;BME280;51710;38.732;-121.358;2024-01-25T11:55:06;101590.28;;;12.12;100.00
64967;BME280;51710;38.732;-121.358;2024-01-25T11:57:35;101583.41;;;12.10;100.00
64967;BME280;51710;38.732;-121.358;2024-01-25T12:00:05;101586.34;;;12.07;100.00
64967;BME280;51710;38.732;-121.358;2024-01-25T12:02:32;101588.31;;;12.05;100.00
64967;BME280;51710;38.732;-121.358;2024-01-25T12:04:59;101591.28;;;12.02;100.00
64967;BME280;51710;38.732;-121.358;2024-01-25T12:07:30;101589.75;;;11.99;100.00
64967;BME280;51710;38.732;-121.358;2024-01-25T12:10:04;101590.03;;;11.96;100.00
64967;BME280;51710;38.732;-121.358;2024-01-25T12:12:31;101590.88;;;11.97;100.00
64967;BME280;51710;38.732;-121.358;2024-01-25T12:15:03;101597.88;;;11.98;100.00